createdAt,value
2019-05-26T00:01:49.216Z,100311.58
2019-05-26T00:04:35.799Z,100311.05
2019-05-26T00:07:30.088Z,100314.38
2019-05-26T00:10:11.083Z,100309.59
2019-05-26T00:12:57.535Z,100310.42
2019-05-26T00:15:43.701Z,100310.89
2019-05-26T00:18:33.200Z,100302.89
2019-05-26T00:21:18.217Z,100307.72
2019-05-26T00:24:04.146Z,100308.20
2019-05-26T00:26:50.588Z,100304.73
2019-05-26T00:29:37.281Z,100294.22
2019-05-26T00:32:23.825Z,100298.18
2019-05-26T00:35:10.215Z,100294.02
2019-05-26T00:37:56.836Z,100290.91
2019-05-26T00:40:43.482Z,100292.45
2019-05-26T00:43:29.669Z,100283.61
2019-05-26T00:46:21.259Z,100283.72
2019-05-26T00:49:08.110Z,100283.12
2019-05-26T00:51:54.566Z,100287.91
2019-05-26T00:54:40.886Z,100288.16
2019-05-26T00:57:27.646Z,100278.84
2019-05-26T01:00:14.700Z,100282.17
2019-05-26T01:03:00.890Z,100283.89
2019-05-26T01:05:47.176Z,100282.20
2019-05-26T01:08:40.320Z,100282.12
2019-05-26T01:11:42.545Z,100276.03
2019-05-26T01:14:33.932Z,100279.84
2019-05-26T01:18:02.637Z,100281.15
2019-05-26T01:21:07.782Z,100280.91
2019-05-26T01:24:04.966Z,100271.97
2019-05-26T01:27:22.552Z,100273.86
2019-05-26T01:30:52.924Z,100281.97
2019-05-26T01:34:10.044Z,100268.84
2019-05-26T01:37:25.425Z,100274.58
2019-05-26T01:40:18.835Z,100271.59
2019-05-26T01:46:28.149Z,100268.61
2019-05-26T01:49:58.319Z,100265.16
2019-05-26T01:52:44.271Z,100256.11
2019-05-26T01:55:30.461Z,100259.34
2019-05-26T01:58:16.428Z,100257.55
2019-05-26T02:01:02.661Z,100255.98
2019-05-26T02:03:48.766Z,100248.45
2019-05-26T02:06:34.850Z,100248.09
2019-05-26T02:09:21.055Z,100242.99
2019-05-26T02:12:07.182Z,100235.81
2019-05-26T02:14:53.264Z,100242.37
2019-05-26T02:17:39.531Z,100235.77
2019-05-26T02:20:25.753Z,100231.70
2019-05-26T02:23:11.881Z,100230.12
2019-05-26T02:25:58.199Z,100234.52
2019-05-26T02:28:44.200Z,100226.64
2019-05-26T02:31:30.540Z,100227.61
2019-05-26T02:34:16.453Z,100226.02
2019-05-26T02:37:02.732Z,100223.16
2019-05-26T02:39:48.816Z,100212.56
2019-05-26T02:42:34.855Z,100211.45
2019-05-26T02:45:21.253Z,100213.63
2019-05-26T02:48:07.490Z,100213.57
2019-05-26T02:50:53.503Z,100210.34
2019-05-26T02:53:39.728Z,100213.02
2019-05-26T02:56:25.893Z,100213.56
2019-05-26T02:59:11.825Z,100216.34
2019-05-26T03:02:03.599Z,100216.82
2019-05-26T03:04:46.562Z,100216.19
2019-05-26T03:07:32.887Z,100212.16
2019-05-26T03:10:18.726Z,100213.59
2019-05-26T03:13:05.085Z,100212.39
2019-05-26T03:15:51.194Z,100207.25
2019-05-26T03:18:38.918Z,100204.16
2019-05-26T03:21:25.657Z,100205.70
2019-05-26T03:24:13.517Z,100201.50
2019-05-26T03:26:59.782Z,100198.41
2019-05-26T03:29:45.758Z,100196.47
2019-05-26T03:32:31.918Z,100192.31
2019-05-26T03:35:17.845Z,100197.41
2019-05-26T03:38:04.113Z,100192.48
2019-05-26T03:40:50.002Z,100189.51
2019-05-26T03:43:36.135Z,100185.14
2019-05-26T03:46:22.524Z,100184.84
2019-05-26T03:49:09.214Z,100184.08
2019-05-26T03:51:55.543Z,100183.31
2019-05-26T03:54:41.556Z,100183.53
2019-05-26T03:57:27.811Z,100178.75
2019-05-26T04:00:14.541Z,100178.26
2019-05-26T04:03:01.080Z,100168.34
2019-05-26T04:05:47.199Z,100168.00
2019-05-26T04:08:33.378Z,100164.55
2019-05-26T04:11:19.542Z,100162.47
2019-05-26T04:14:05.797Z,100159.68
2019-05-26T04:16:52.211Z,100158.18
2019-05-26T04:19:38.448Z,100159.34
2019-05-26T04:22:24.606Z,100166.94
2019-05-26T04:25:10.995Z,100169.27
2019-05-26T04:27:57.284Z,100170.24
2019-05-26T04:30:44.028Z,100171.38
2019-05-26T04:33:30.616Z,100164.39
2019-05-26T04:36:16.825Z,100162.36
2019-05-26T04:39:05.170Z,100160.23
2019-05-26T04:41:51.313Z,100158.33
2019-05-26T04:44:37.475Z,100160.02
2019-05-26T04:47:24.195Z,100160.78
2019-05-26T04:50:10.624Z,100161.95
2019-05-26T04:53:06.063Z,100170.09
2019-05-26T04:55:45.478Z,100165.73
2019-05-26T04:58:31.557Z,100162.52
2019-05-26T05:01:18.111Z,100171.11
2019-05-26T05:04:04.330Z,100165.91
2019-05-26T05:06:50.775Z,100158.81
2019-05-26T05:09:36.970Z,100156.21
2019-05-26T05:12:23.326Z,100149.91
2019-05-26T05:15:11.250Z,100160.56
2019-05-26T05:17:57.675Z,100161.68
2019-05-26T05:20:44.435Z,100161.39
2019-05-26T05:23:30.901Z,100158.70
2019-05-26T05:26:16.995Z,100159.47
2019-05-26T05:29:03.666Z,100151.91
2019-05-26T05:31:49.925Z,100148.69
2019-05-26T05:34:36.204Z,100153.73
2019-05-26T05:37:25.145Z,100153.52
2019-05-26T05:40:13.431Z,100159.31
2019-05-26T05:42:59.725Z,100160.59
2019-05-26T05:45:45.830Z,100162.22
2019-05-26T05:48:32.636Z,100159.77
2019-05-26T05:51:19.073Z,100154.51
2019-05-26T05:54:05.587Z,100147.45
2019-05-26T05:56:55.490Z,100145.66
2019-05-26T05:59:40.516Z,100128.80
2019-05-26T06:02:26.851Z,100127.41
2019-05-26T06:05:13.934Z,100134.48
2019-05-26T06:08:00.014Z,100131.56
2019-05-26T06:10:46.160Z,100123.70
2019-05-26T06:13:32.871Z,100120.72
2019-05-26T06:16:18.826Z,100123.48
2019-05-26T06:19:05.166Z,100115.87
2019-05-26T06:21:51.565Z,100104.38
2019-05-26T06:24:37.682Z,100122.24
2019-05-26T06:27:23.861Z,100119.27
2019-05-26T06:30:10.589Z,100115.70
2019-05-26T06:32:57.125Z,100108.09
2019-05-26T06:35:43.320Z,100112.42
2019-05-26T06:38:30.034Z,100110.55
2019-05-26T06:41:32.394Z,100109.36
2019-05-26T06:44:05.030Z,100107.77
2019-05-26T06:46:51.376Z,100099.95
2019-05-26T06:49:37.655Z,100099.51
2019-05-26T06:52:23.926Z,100109.98
2019-05-26T06:55:10.955Z,100108.08
2019-05-26T06:57:57.496Z,100101.32
2019-05-26T07:00:43.775Z,100114.22
2019-05-26T07:03:30.138Z,100105.99
2019-05-26T07:06:16.460Z,100116.92
2019-05-26T07:09:04.420Z,100104.23
2019-05-26T07:11:59.648Z,100093.06
2019-05-26T07:14:38.600Z,100106.51
2019-05-26T07:17:24.785Z,100102.20
2019-05-26T07:20:11.002Z,100103.50
2019-05-26T07:22:57.590Z,100122.48
2019-05-26T07:25:43.845Z,100111.39
2019-05-26T07:28:30.371Z,100098.00
2019-05-26T07:31:16.615Z,100105.05
2019-05-26T07:34:03.146Z,100103.36
2019-05-26T07:36:49.467Z,100102.36
2019-05-26T07:39:35.765Z,100114.20
2019-05-26T07:42:21.988Z,100113.45
2019-05-26T07:45:10.480Z,100108.75
2019-05-26T07:47:56.947Z,100102.52
2019-05-26T07:50:43.601Z,100108.17
2019-05-26T07:53:29.976Z,100099.52
2019-05-26T07:56:16.065Z,100106.81
2019-05-26T07:59:02.863Z,100112.76
2019-05-26T08:01:48.936Z,100103.03
2019-05-26T08:04:35.153Z,100103.52
2019-05-26T08:07:23.135Z,100106.84
2019-05-26T08:10:11.196Z,100088.84
2019-05-26T08:13:01.381Z,100088.84
2019-05-26T08:15:48.122Z,100095.39
2019-05-26T08:18:37.810Z,100076.59
2019-05-26T08:21:24.791Z,100072.97
2019-05-26T08:24:11.234Z,100072.97
2019-05-26T08:26:57.865Z,100067.84
2019-05-26T08:29:44.518Z,100065.98
2019-05-26T08:32:30.900Z,100056.83
2019-05-26T08:35:17.211Z,100058.55
2019-05-26T08:38:06.071Z,100066.16
2019-05-26T08:41:19.382Z,100054.84
2019-05-26T08:48:29.814Z,100059.24
2019-05-26T08:52:06.335Z,100053.34
2019-05-26T08:55:18.550Z,100053.34
2019-05-26T08:58:11.916Z,100040.48
2019-05-26T09:01:10.151Z,100039.39
2019-05-26T09:03:59.953Z,100060.27
2019-05-26T09:07:04.779Z,100074.17
2019-05-26T09:14:18.061Z,100060.41
2019-05-26T09:17:57.503Z,100061.39
2019-05-26T09:20:51.186Z,100056.24
2019-05-26T09:24:10.473Z,100054.95
2019-05-26T09:26:57.171Z,100064.17
2019-05-26T09:29:54.417Z,100073.78
2019-05-26T09:32:46.771Z,100068.17
2019-05-26T09:39:47.344Z,100074.67
2019-05-26T09:43:14.772Z,100079.02
2019-05-26T09:46:29.174Z,100074.76
2019-05-26T09:56:58.036Z,100068.31
2019-05-26T10:00:23.931Z,100053.44
2019-05-26T10:03:47.514Z,100054.34
2019-05-26T10:07:01.865Z,100060.99
2019-05-26T10:09:48.992Z,100058.08
2019-05-26T10:12:57.308Z,100059.30
2019-05-26T10:15:48.003Z,100045.30
2019-05-26T10:18:57.681Z,100036.45
2019-05-26T10:21:48.522Z,100035.36
2019-05-26T10:24:59.378Z,100041.78
2019-05-26T10:32:12.809Z,100025.25
2019-05-26T10:39:10.139Z,100021.63
2019-05-26T10:42:54.016Z,100014.25
2019-05-26T10:46:09.839Z,100015.36
2019-05-26T10:49:04.166Z,100012.01
2019-05-26T10:51:59.154Z,99998.52
2019-05-26T10:54:45.108Z,99987.80
2019-05-26T10:57:35.737Z,100004.55
2019-05-26T11:00:39.886Z,100003.10
2019-05-26T11:03:29.330Z,100015.80
2019-05-26T11:06:45.729Z,99987.48
2019-05-26T11:09:12.991Z,99986.98
2019-05-26T11:12:13.164Z,99984.48
2019-05-26T11:15:17.973Z,99991.02
2019-05-26T11:18:18.621Z,99986.03
2019-05-26T11:21:28.577Z,99984.80
2019-05-26T11:24:30.705Z,99975.05
2019-05-26T11:27:23.692Z,99959.71
2019-05-26T11:30:19.831Z,99956.59
2019-05-26T11:33:54.425Z,99947.42
2019-05-26T11:36:49.058Z,99958.52
2019-05-26T11:39:46.459Z,99953.15
2019-05-26T11:42:36.685Z,99967.17
2019-05-26T11:45:28.057Z,99964.28
2019-05-26T11:48:14.105Z,99965.03
2019-05-26T11:51:13.926Z,99963.48
2019-05-26T11:54:05.585Z,99959.20
2019-05-26T11:56:51.943Z,99955.42
2019-05-26T11:59:47.005Z,99953.61
2019-05-26T12:02:34.943Z,99950.08
2019-05-26T12:05:23.845Z,99948.68
2019-05-26T12:08:12.844Z,99939.47
2019-05-26T12:11:31.987Z,99934.92
2019-05-26T12:14:34.405Z,99933.42
2019-05-26T12:17:17.103Z,99942.38
2019-05-26T12:20:13.924Z,99922.13
2019-05-26T12:23:10.372Z,99920.85
2019-05-26T12:26:12.766Z,99907.69
2019-05-26T12:29:00.323Z,99916.20
2019-05-26T12:31:56.437Z,99915.13
2019-05-26T12:34:51.518Z,99905.45
2019-05-26T12:38:10.737Z,99904.42
2019-05-26T12:40:58.397Z,99909.06
2019-05-26T12:43:44.759Z,99902.98
2019-05-26T12:46:31.010Z,99899.08
2019-05-26T12:49:17.122Z,99903.76
2019-05-26T12:52:03.483Z,99909.99
2019-05-26T12:54:50.062Z,99888.80
2019-05-26T12:57:36.311Z,99879.03
2019-05-26T13:00:22.921Z,99885.78
2019-05-26T13:03:09.184Z,99880.95
2019-05-26T13:05:55.241Z,99879.20
2019-05-26T13:08:41.562Z,99876.73
2019-05-26T13:11:28.049Z,99875.22
2019-05-26T13:14:14.152Z,99881.52
2019-05-26T13:17:01.656Z,99892.86
2019-05-26T13:19:47.950Z,99885.44
2019-05-26T13:22:34.611Z,99893.76
2019-05-26T13:25:21.569Z,99888.08
2019-05-26T13:28:07.803Z,99883.83
2019-05-26T13:30:53.843Z,99887.13
2019-05-26T13:33:40.106Z,99877.09
2019-05-26T13:36:26.116Z,99873.27
2019-05-26T13:39:12.383Z,99874.51
2019-05-26T13:41:58.639Z,99873.30
2019-05-26T13:44:44.806Z,99870.67
2019-05-26T13:47:30.983Z,99870.80
2019-05-26T13:50:17.636Z,99869.98
2019-05-26T13:53:03.903Z,99864.99
2019-05-26T13:55:49.993Z,99864.81
2019-05-26T13:58:36.322Z,99865.40
2019-05-26T14:01:22.363Z,99851.63
2019-05-26T14:04:08.583Z,99856.84
2019-05-26T14:06:54.950Z,99870.58
2019-05-26T14:09:41.536Z,99856.18
2019-05-26T14:12:27.728Z,99847.09
2019-05-26T14:15:14.048Z,99855.20
2019-05-26T14:18:00.432Z,99850.58
2019-05-26T14:20:46.910Z,99852.91
2019-05-26T14:23:33.409Z,99839.61
2019-05-26T14:26:19.468Z,99835.46
2019-05-26T14:29:05.990Z,99846.67
2019-05-26T14:31:52.965Z,99841.31
2019-05-26T14:34:39.812Z,99843.08
2019-05-26T14:37:26.108Z,99833.87
2019-05-26T14:40:12.288Z,99834.28
2019-05-26T14:42:58.332Z,99803.34
2019-05-26T14:45:52.808Z,99818.55
2019-05-26T14:48:32.749Z,99820.42
2019-05-26T14:51:19.009Z,99821.91
2019-05-26T14:54:05.388Z,99808.05
2019-05-26T14:56:51.429Z,99816.17
2019-05-26T14:59:37.566Z,99813.43
2019-05-26T15:02:23.786Z,99805.03
2019-05-26T15:05:09.997Z,99810.20
2019-05-26T15:07:56.207Z,99810.81
2019-05-26T15:10:42.223Z,99807.41
2019-05-26T15:13:28.384Z,99798.28
2019-05-26T15:16:14.446Z,99790.63
2019-05-26T15:19:00.903Z,99801.34
2019-05-26T15:21:47.383Z,99795.20
2019-05-26T15:24:33.523Z,99792.95
2019-05-26T15:27:20.127Z,99799.06
2019-05-26T15:30:08.483Z,99800.45
2019-05-26T15:32:54.383Z,99795.41
2019-05-26T15:35:40.623Z,99803.97
2019-05-26T15:38:41.691Z,99803.52
2019-05-26T15:41:15.203Z,99810.73
2019-05-26T15:44:01.724Z,99795.07
2019-05-26T15:46:47.926Z,99788.41
2019-05-26T15:49:34.371Z,99794.28
2019-05-26T15:52:20.823Z,99797.55
2019-05-26T15:55:07.487Z,99787.96
2019-05-26T15:57:53.689Z,99779.73
2019-05-26T16:00:39.684Z,99788.67
2019-05-26T16:03:25.764Z,99772.39
2019-05-26T16:06:12.245Z,99765.74
2019-05-26T16:08:58.563Z,99766.86
2019-05-26T16:11:44.815Z,99764.75
2019-05-26T16:14:31.063Z,99756.70
2019-05-26T16:17:17.031Z,99751.42
2019-05-26T16:20:04.047Z,99750.27
2019-05-26T16:22:50.343Z,99755.44
2019-05-26T16:25:36.503Z,99750.76
2019-05-26T16:28:22.784Z,99740.30
2019-05-26T16:31:12.031Z,99742.42
2019-05-26T16:33:56.764Z,99742.95
2019-05-26T16:36:43.104Z,99728.51
2019-05-26T16:39:36.944Z,99735.30
2019-05-26T16:42:17.303Z,99735.30
2019-05-26T16:45:04.352Z,99741.34
2019-05-26T16:47:50.691Z,99737.53
2019-05-26T16:50:36.803Z,99735.37
2019-05-26T16:53:23.054Z,99722.48
2019-05-26T16:56:09.101Z,99733.38
2019-05-26T16:58:55.188Z,99729.33
2019-05-26T17:01:41.597Z,99719.60
2019-05-26T17:04:27.609Z,99715.68
2019-05-26T17:07:13.824Z,99714.56
2019-05-26T17:10:00.159Z,99706.98
2019-05-26T17:12:46.192Z,99703.83
2019-05-26T17:15:32.524Z,99697.58
2019-05-26T17:18:18.619Z,99695.81
2019-05-26T17:21:04.813Z,99692.16
2019-05-26T17:23:50.835Z,99690.27
2019-05-26T17:26:37.624Z,99685.77
2019-05-26T17:29:24.185Z,99698.00
2019-05-26T17:32:11.064Z,99699.38
2019-05-26T17:34:58.024Z,99695.66
2019-05-26T17:37:44.236Z,99692.46
2019-05-26T17:40:30.439Z,99704.30
2019-05-26T17:43:19.006Z,99700.25
2019-05-26T17:46:05.397Z,99699.59
2019-05-26T17:48:51.452Z,99695.75
2019-05-26T17:51:37.567Z,99689.55
2019-05-26T17:54:23.661Z,99695.00
2019-05-26T17:57:09.951Z,99693.92
2019-05-26T17:59:56.026Z,99699.27
2019-05-26T18:02:42.341Z,99703.61
2019-05-26T18:05:28.528Z,99701.36
2019-05-26T18:08:14.683Z,99703.84
2019-05-26T18:11:00.894Z,99692.05
2019-05-26T18:13:47.142Z,99690.27
2019-05-26T18:16:33.221Z,99690.20
2019-05-26T18:19:19.359Z,99685.89
2019-05-26T18:22:08.052Z,99688.33
2019-05-26T18:24:58.349Z,99682.37
2019-05-26T18:27:42.526Z,99685.38
2019-05-26T18:30:28.943Z,99685.55
2019-05-26T18:33:15.037Z,99678.58
2019-05-26T18:36:01.291Z,99674.77
2019-05-26T18:38:47.672Z,99682.56
2019-05-26T18:41:34.000Z,99678.88
2019-05-26T18:44:20.257Z,99670.75
2019-05-26T18:47:06.401Z,99676.30
2019-05-26T18:49:52.316Z,99673.14
2019-05-26T18:52:38.692Z,99675.19
2019-05-26T18:55:24.587Z,99675.08
2019-05-26T18:58:10.882Z,99669.86
2019-05-26T19:00:57.302Z,99663.60
2019-05-26T19:03:43.817Z,99672.66
2019-05-26T19:06:29.901Z,99668.32
2019-05-26T19:09:16.203Z,99669.97
2019-05-26T19:12:02.679Z,99666.56
2019-05-26T19:14:48.916Z,99670.07
2019-05-26T19:17:35.875Z,99666.88
2019-05-26T19:20:22.993Z,99665.31
2019-05-26T19:23:09.392Z,99665.47
2019-05-26T19:25:56.013Z,99666.51
2019-05-26T19:28:42.627Z,99669.88
2019-05-26T19:31:29.573Z,99670.07
2019-05-26T19:34:16.440Z,99668.33
2019-05-26T19:37:03.494Z,99668.70
2019-05-26T19:39:50.202Z,99664.47
2019-05-26T19:42:37.011Z,99663.36
2019-05-26T19:45:23.332Z,99666.91
2019-05-26T19:48:09.553Z,99663.44
2019-05-26T19:50:56.412Z,99657.70
2019-05-26T19:53:45.722Z,99657.91
2019-05-26T19:56:31.977Z,99654.31
2019-05-26T19:59:18.521Z,99664.05
2019-05-26T20:02:17.786Z,99656.02
2019-05-26T20:04:53.225Z,99657.46
2019-05-26T20:07:41.276Z,99660.88
2019-05-26T20:10:27.857Z,99652.42
2019-05-26T20:13:14.051Z,99652.00
2019-05-26T20:16:00.757Z,99655.60
2019-05-26T20:18:47.595Z,99658.27
2019-05-26T20:21:34.021Z,99649.01
2019-05-26T20:24:20.569Z,99648.42
2019-05-26T20:27:07.177Z,99650.38
2019-05-26T20:29:53.516Z,99646.74
2019-05-26T20:32:39.710Z,99640.30
2019-05-26T20:35:26.367Z,99638.62
2019-05-26T20:38:12.621Z,99637.52
2019-05-26T20:40:58.798Z,99627.74
2019-05-26T20:43:45.306Z,99633.59
2019-05-26T20:46:31.939Z,99627.33
2019-05-26T20:49:18.550Z,99631.52
2019-05-26T20:52:04.872Z,99632.24
2019-05-26T20:54:51.405Z,99629.06
2019-05-26T20:57:38.211Z,99629.13
2019-05-26T21:00:24.836Z,99630.16
2019-05-26T21:03:11.353Z,99631.59
2019-05-26T21:05:57.463Z,99624.53
2019-05-26T21:08:44.121Z,99618.52
2019-05-26T21:11:30.191Z,99611.93
2019-05-26T21:14:16.731Z,99618.30
2019-05-26T21:17:03.181Z,99607.06
2019-05-26T21:19:49.346Z,99615.28
2019-05-26T21:22:36.324Z,99609.83
2019-05-26T21:25:22.706Z,99609.75
2019-05-26T21:28:08.976Z,99608.84
2019-05-26T21:30:55.112Z,99605.06
2019-05-26T21:33:41.356Z,99607.38
2019-05-26T21:36:27.871Z,99608.64
2019-05-26T21:39:14.756Z,99597.97
2019-05-26T21:42:01.387Z,99608.38
2019-05-26T21:44:47.959Z,99605.83
2019-05-26T21:47:34.756Z,99604.50
2019-05-26T21:50:21.403Z,99602.80
2019-05-26T21:53:07.835Z,99600.14
2019-05-26T21:55:54.102Z,99596.84
2019-05-26T21:58:40.427Z,99592.30
2019-05-26T22:01:26.622Z,99592.81
2019-05-26T22:04:13.147Z,99591.78
2019-05-26T22:06:59.766Z,99595.59
2019-05-26T22:09:46.026Z,99588.81
2019-05-26T22:12:32.002Z,99580.71
2019-05-26T22:15:18.637Z,99586.97
2019-05-26T22:18:05.066Z,99589.33
2019-05-26T22:20:51.372Z,99588.57
2019-05-26T22:23:37.592Z,99585.22
2019-05-26T22:26:24.102Z,99585.15
2019-05-26T22:29:10.720Z,99587.89
2019-05-26T22:31:56.778Z,99577.73
2019-05-26T22:34:43.689Z,99580.96
2019-05-26T22:37:29.642Z,99581.66
2019-05-26T22:40:16.570Z,99578.48
2019-05-26T22:43:03.182Z,99575.78
2019-05-26T22:45:49.471Z,99572.30
2019-05-26T22:48:35.687Z,99572.87
2019-05-26T22:51:21.998Z,99571.92
2019-05-26T22:54:09.217Z,99580.59
2019-05-26T22:56:55.387Z,99575.41
2019-05-26T22:59:42.097Z,99571.42
2019-05-26T23:02:28.588Z,99567.69
2019-05-26T23:05:14.956Z,99565.08
2019-05-26T23:08:01.518Z,99562.06
2019-05-26T23:10:47.826Z,99560.60
2019-05-26T23:13:34.462Z,99555.72
2019-05-26T23:16:21.002Z,99561.03
2019-05-26T23:19:18.827Z,99550.45
2019-05-26T23:21:55.439Z,99545.98
2019-05-26T23:24:42.421Z,99550.14
2019-05-26T23:27:28.756Z,99546.11
2019-05-26T23:30:15.207Z,99543.70
2019-05-26T23:33:01.712Z,99539.84
2019-05-26T23:35:47.873Z,99537.24
2019-05-26T23:38:34.080Z,99535.09
2019-05-26T23:41:20.031Z,99538.69
2019-05-26T23:44:06.169Z,99531.11
2019-05-26T23:46:52.367Z,99527.75
2019-05-26T23:49:39.028Z,99537.06
2019-05-26T23:52:25.531Z,99535.52
2019-05-26T23:55:11.681Z,99533.38
2019-05-26T23:57:57.771Z,99535.66
